createdAt,value
2023-01-29T00:00:22.415Z,100061.97
2023-01-29T00:02:49.334Z,100043.41
2023-01-29T00:05:27.336Z,100054.63
2023-01-29T00:07:56.171Z,100017.81
2023-01-29T00:10:24.143Z,100092.22
2023-01-29T00:12:51.719Z,100002.97
2023-01-29T00:15:18.712Z,99789.38
2023-01-29T00:17:45.341Z,100073.44
2023-01-29T00:20:12.261Z,100063.00
2023-01-29T00:22:38.841Z,99982.03
2023-01-29T00:25:05.859Z,99862.22
2023-01-29T00:27:32.461Z,99985.59
2023-01-29T00:30:16.537Z,99835.69
2023-01-29T00:32:43.645Z,100008.28
2023-01-29T00:35:10.453Z,100036.41
2023-01-29T00:37:37.360Z,99828.97
2023-01-29T00:40:05.226Z,99933.34
2023-01-29T00:42:50.754Z,100022.25
2023-01-29T00:45:17.474Z,100035.91
2023-01-29T00:47:45.481Z,99652.69
2023-01-29T00:50:13.262Z,100015.75
2023-01-29T00:52:43.055Z,100029.31
2023-01-29T00:55:10.994Z,99998.66
2023-01-29T00:57:38.740Z,100086.00
2023-01-29T01:00:08.186Z,99546.97
2023-01-29T01:02:54.353Z,100016.16
2023-01-29T01:05:21.075Z,100013.03
2023-01-29T01:07:50.655Z,99849.41
2023-01-29T01:10:24.241Z,99985.66
2023-01-29T01:13:03.617Z,99920.22
2023-01-29T01:15:40.503Z,99978.19
2023-01-29T01:18:07.466Z,99704.88
2023-01-29T01:20:35.751Z,99804.75
2023-01-29T01:23:03.402Z,99997.06
2023-01-29T01:25:30.076Z,99945.00
2023-01-29T01:30:27.261Z,99906.56
2023-01-29T01:32:54.846Z,99810.66
2023-01-29T01:35:21.427Z,99848.31
2023-01-29T01:37:48.877Z,99987.50
2023-01-29T01:40:19.071Z,99930.38
2023-01-29T01:42:51.142Z,99974.22
2023-01-29T01:45:35.882Z,99974.00
2023-01-29T01:48:08.296Z,99960.50
2023-01-29T01:50:45.256Z,99955.59
2023-01-29T01:53:26.213Z,99951.78
2023-01-29T01:56:01.362Z,99845.03
2023-01-29T01:58:33.347Z,99846.72
2023-01-29T02:01:01.210Z,99946.22
2023-01-29T02:03:48.639Z,99880.34
2023-01-29T02:06:34.233Z,99931.41
2023-01-29T02:09:35.439Z,99919.88
2023-01-29T02:12:07.575Z,99920.47
2023-01-29T02:14:38.923Z,99861.91
2023-01-29T02:17:13.548Z,99809.59
2023-01-29T02:19:54.942Z,99843.28
2023-01-29T02:22:42.089Z,99931.38
2023-01-29T02:25:50.411Z,99747.13
2023-01-29T02:28:39.529Z,99929.06
2023-01-29T02:31:09.861Z,99804.63
2023-01-29T02:34:00.787Z,99927.34
2023-01-29T02:37:06.131Z,99854.47
2023-01-29T02:39:38.018Z,99900.09
2023-01-29T02:42:11.784Z,99902.69
2023-01-29T02:44:48.803Z,99901.06
2023-01-29T02:47:22.214Z,99902.25
2023-01-29T02:50:03.866Z,99902.63
2023-01-29T02:52:50.837Z,99885.22
2023-01-29T02:55:23.469Z,99726.16
2023-01-29T02:57:59.581Z,99880.09
2023-01-29T03:00:33.567Z,99899.50
2023-01-29T03:03:12.365Z,99887.97
2023-01-29T03:06:06.460Z,99541.25
2023-01-29T03:08:45.753Z,99878.59
2023-01-29T03:11:15.339Z,99839.53
2023-01-29T03:14:00.290Z,99871.03
2023-01-29T03:16:35.486Z,99807.72
2023-01-29T03:19:08.625Z,99855.88
2023-01-29T03:22:01.247Z,99852.19
2023-01-29T03:25:16.941Z,99835.13
2023-01-29T03:28:25.713Z,99508.91
2023-01-29T03:31:14.371Z,99817.44
2023-01-29T03:33:57.627Z,99811.34
2023-01-29T03:36:38.190Z,99803.50
2023-01-29T03:39:11.448Z,99730.81
2023-01-29T03:41:55.988Z,99675.69
2023-01-29T03:44:34.278Z,99784.25
2023-01-29T03:47:22.728Z,99773.81
2023-01-29T03:50:08.317Z,99782.22
2023-01-29T03:52:46.948Z,99684.44
2023-01-29T03:55:26.145Z,99781.88
2023-01-29T03:58:20.855Z,99772.97
2023-01-29T04:01:02.195Z,99713.72
2023-01-29T04:03:35.624Z,99711.16
2023-01-29T04:06:13.140Z,99698.41
2023-01-29T04:08:55.696Z,99663.38
2023-01-29T04:11:23.348Z,99629.28
2023-01-29T04:13:51.040Z,99554.81
2023-01-29T04:16:25.209Z,99694.41
2023-01-29T04:19:21.441Z,99644.56
2023-01-29T04:21:55.528Z,99707.50
2023-01-29T04:24:22.193Z,99733.19
2023-01-29T04:27:11.549Z,99554.50
2023-01-29T04:30:01.001Z,99605.72
2023-01-29T04:32:51.976Z,99699.28
2023-01-29T04:35:31.413Z,99708.72
2023-01-29T04:38:06.274Z,99686.84
2023-01-29T04:40:48.375Z,99497.94
2023-01-29T04:43:30.466Z,99683.22
2023-01-29T04:46:06.281Z,99668.75
2023-01-29T04:49:05.327Z,99668.19
2023-01-29T04:51:58.385Z,99657.38
2023-01-29T04:54:34.266Z,99646.09
2023-01-29T04:57:16.039Z,98898.16
2023-01-29T04:59:48.447Z,99612.88
2023-01-29T05:02:15.105Z,99607.47
2023-01-29T05:04:45.211Z,99571.88
2023-01-29T05:07:14.034Z,99641.16
2023-01-29T05:09:43.706Z,99577.91
2023-01-29T05:12:13.040Z,99517.56
2023-01-29T05:14:43.458Z,99591.56
2023-01-29T05:17:17.590Z,99590.84
2023-01-29T05:19:44.835Z,99278.41
2023-01-29T05:22:15.298Z,99394.47
2023-01-29T05:24:42.112Z,99349.78
2023-01-29T05:27:37.162Z,99017.88
2023-01-29T05:30:04.566Z,99549.78
2023-01-29T05:32:31.192Z,99474.88
2023-01-29T05:34:57.811Z,99455.00
2023-01-29T05:37:24.445Z,99503.69
2023-01-29T05:39:51.095Z,99552.19
2023-01-29T05:42:17.660Z,99458.31
2023-01-29T05:44:44.278Z,99340.47
2023-01-29T05:47:10.899Z,99502.75
2023-01-29T05:49:38.808Z,99492.50
2023-01-29T05:52:05.572Z,99518.13
2023-01-29T05:54:32.215Z,98644.97
2023-01-29T05:56:58.846Z,99343.13
2023-01-29T05:59:25.614Z,99481.63
2023-01-29T06:01:52.226Z,99460.53
2023-01-29T06:04:18.918Z,99392.53
2023-01-29T06:06:45.490Z,99424.50
2023-01-29T06:09:12.142Z,99333.84
2023-01-29T06:11:38.756Z,99420.75
2023-01-29T06:14:05.417Z,99310.38
2023-01-29T06:16:32.181Z,99439.78
2023-01-29T06:18:58.911Z,99393.53
2023-01-29T06:21:25.549Z,99299.53
2023-01-29T06:23:53.801Z,99305.53
2023-01-29T06:26:20.930Z,99286.00
2023-01-29T06:28:51.083Z,99425.78
2023-01-29T06:31:37.921Z,99314.22
2023-01-29T06:34:05.669Z,99386.19
2023-01-29T06:36:32.335Z,99437.72
2023-01-29T06:38:59.071Z,99329.81
2023-01-29T06:41:25.955Z,99406.63
2023-01-29T06:43:53.083Z,99243.94
2023-01-29T06:46:20.285Z,99376.56
2023-01-29T06:48:47.012Z,99384.00
2023-01-29T06:51:13.635Z,99401.22
2023-01-29T06:53:40.742Z,99349.00
2023-01-29T06:56:09.136Z,99396.81
2023-01-29T06:58:38.811Z,99263.88
2023-01-29T07:01:08.199Z,99227.72
2023-01-29T07:03:35.092Z,99379.03
2023-01-29T07:06:02.291Z,99273.59
2023-01-29T07:08:29.000Z,99376.59
2023-01-29T07:11:00.522Z,99284.47
2023-01-29T07:13:27.642Z,99277.25
2023-01-29T07:15:54.281Z,99301.56
2023-01-29T07:18:21.059Z,99285.44
2023-01-29T07:20:47.697Z,99283.56
2023-01-29T07:23:14.884Z,99263.56
2023-01-29T07:25:41.959Z,99243.44
2023-01-29T07:28:09.048Z,99238.25
2023-01-29T07:30:36.138Z,99343.78
2023-01-29T07:33:07.612Z,99353.75
2023-01-29T07:35:39.348Z,99342.91
2023-01-29T07:38:10.146Z,99330.16
2023-01-29T07:40:37.162Z,99341.00
2023-01-29T07:43:06.373Z,99321.63
2023-01-29T07:45:35.617Z,99314.84
2023-01-29T07:48:04.254Z,99200.59
2023-01-29T07:50:33.491Z,99272.41
2023-01-29T07:53:00.866Z,99326.38
2023-01-29T07:55:27.567Z,99200.06
2023-01-29T07:57:58.919Z,99313.59
2023-01-29T08:00:26.183Z,99258.72
2023-01-29T08:02:53.143Z,99300.75
2023-01-29T08:05:20.116Z,99220.00
2023-01-29T08:07:51.569Z,99209.47
2023-01-29T08:10:28.057Z,99290.91
2023-01-29T08:12:59.345Z,99192.94
2023-01-29T08:15:26.306Z,99293.63
2023-01-29T08:20:39.907Z,99260.72
2023-01-29T08:23:14.118Z,99243.22
2023-01-29T08:25:41.257Z,99093.59
2023-01-29T08:28:08.011Z,99130.69
2023-01-29T08:30:35.306Z,99288.25
2023-01-29T08:33:04.104Z,99271.81
2023-01-29T08:35:31.098Z,99094.53
2023-01-29T08:38:03.422Z,99043.66
2023-01-29T08:40:33.356Z,99277.84
2023-01-29T08:43:06.999Z,99280.31
2023-01-29T08:45:37.831Z,99235.41
2023-01-29T08:48:04.801Z,99162.63
2023-01-29T08:50:32.396Z,99220.25
2023-01-29T08:52:59.741Z,99249.44
2023-01-29T08:55:27.198Z,99244.66
2023-01-29T08:57:54.060Z,99251.06
2023-01-29T09:00:21.139Z,99239.97
2023-01-29T09:02:47.812Z,99122.97
2023-01-29T09:05:15.386Z,99224.31
2023-01-29T09:07:42.235Z,99067.19
2023-01-29T09:10:09.423Z,99220.16
2023-01-29T09:12:36.119Z,99123.22
2023-01-29T09:15:02.866Z,99123.31
2023-01-29T09:17:29.664Z,99203.63
2023-01-29T09:19:57.565Z,99177.09
2023-01-29T09:22:24.233Z,99178.81
2023-01-29T09:24:50.872Z,99170.31
2023-01-29T09:27:17.447Z,99188.91
2023-01-29T09:29:44.170Z,99071.38
2023-01-29T09:32:10.802Z,98998.59
2023-01-29T09:34:37.399Z,99112.84
2023-01-29T09:37:04.023Z,99105.88
2023-01-29T09:39:30.681Z,99074.44
2023-01-29T09:42:11.383Z,99158.56
2023-01-29T09:44:40.826Z,99141.88
2023-01-29T09:47:13.243Z,99083.47
2023-01-29T09:49:45.177Z,99064.22
2023-01-29T09:52:19.474Z,99073.31
2023-01-29T09:55:06.977Z,99138.19
2023-01-29T09:57:44.723Z,99111.78
2023-01-29T10:00:28.269Z,99111.53
2023-01-29T10:03:42.648Z,99268.13
2023-01-29T10:06:57.175Z,99095.09
2023-01-29T10:09:48.803Z,99090.13
2023-01-29T10:12:29.564Z,99077.56
2023-01-29T10:15:14.255Z,99069.56
2023-01-29T10:17:41.052Z,99075.13
2023-01-29T10:20:10.481Z,99051.16
2023-01-29T10:22:45.835Z,99048.28
2023-01-29T10:25:21.455Z,98947.94
2023-01-29T10:27:53.925Z,98773.53
2023-01-29T10:30:32.171Z,99034.47
2023-01-29T10:33:02.904Z,99015.13
2023-01-29T10:35:38.918Z,98993.22
2023-01-29T10:38:21.326Z,98973.41
2023-01-29T10:41:05.739Z,98990.81
2023-01-29T10:43:50.610Z,98985.97
2023-01-29T10:46:35.574Z,98978.75
2023-01-29T10:49:28.725Z,98986.03
2023-01-29T10:52:04.637Z,98964.44
2023-01-29T10:55:04.138Z,98888.31
2023-01-29T10:58:03.227Z,98940.84
2023-01-29T11:00:40.577Z,98927.31
2023-01-29T11:03:27.891Z,98920.19
2023-01-29T11:06:19.985Z,98912.34
2023-01-29T11:08:55.332Z,98919.63
2023-01-29T11:11:31.420Z,98893.47
2023-01-29T11:14:07.132Z,98825.09
2023-01-29T11:16:42.770Z,98912.94
2023-01-29T11:19:10.524Z,98893.03
2023-01-29T11:22:21.790Z,98759.81
2023-01-29T11:25:10.461Z,98780.13
2023-01-29T11:27:52.238Z,98792.13
2023-01-29T11:30:35.668Z,98851.19
2023-01-29T11:33:08.754Z,98832.00
2023-01-29T11:35:36.642Z,98826.84
2023-01-29T11:38:14.225Z,98767.81
2023-01-29T11:40:41.723Z,98662.25
2023-01-29T11:43:32.243Z,98801.66
2023-01-29T11:46:03.643Z,98651.97
2023-01-29T11:48:39.619Z,98794.16
2023-01-29T11:51:07.051Z,98619.44
2023-01-29T11:53:41.026Z,98785.38
2023-01-29T11:56:44.670Z,98769.44
2023-01-29T11:59:40.128Z,98786.22
2023-01-29T12:02:31.519Z,98736.00
2023-01-29T12:05:16.440Z,98686.72
2023-01-29T12:07:45.622Z,98782.44
2023-01-29T12:10:40.857Z,98783.75
2023-01-29T12:13:10.700Z,98767.69
2023-01-29T12:15:38.996Z,98770.63
2023-01-29T12:18:13.427Z,98767.94
2023-01-29T12:21:02.127Z,98760.78
2023-01-29T12:23:47.217Z,98742.50
2023-01-29T12:26:29.847Z,98638.03
2023-01-29T12:29:21.204Z,98715.91
2023-01-29T12:32:00.005Z,98708.50
2023-01-29T12:34:35.922Z,98648.13
2023-01-29T12:37:37.216Z,98670.44
2023-01-29T12:40:12.425Z,98665.41
2023-01-29T12:42:43.403Z,98519.88
2023-01-29T12:45:17.458Z,98662.56
2023-01-29T12:47:49.109Z,98479.06
2023-01-29T12:50:27.933Z,98649.19
2023-01-29T12:53:03.306Z,98547.63
2023-01-29T12:55:40.168Z,98602.25
2023-01-29T12:58:16.732Z,98640.09
2023-01-29T13:00:46.319Z,98495.31
2023-01-29T13:03:21.338Z,98590.81
2023-01-29T13:05:53.519Z,98581.41
2023-01-29T13:08:36.247Z,98593.69
2023-01-29T13:11:08.570Z,98589.91
2023-01-29T13:13:54.042Z,98448.28
2023-01-29T13:16:27.954Z,98508.75
2023-01-29T13:19:01.861Z,98598.66
2023-01-29T13:21:38.995Z,98517.66
2023-01-29T13:24:13.120Z,98443.38
2023-01-29T13:26:40.945Z,98562.81
2023-01-29T13:29:19.981Z,98528.94
2023-01-29T13:31:49.661Z,98556.00
2023-01-29T13:34:22.913Z,98469.72
2023-01-29T13:36:56.299Z,98537.31
2023-01-29T13:39:34.280Z,98531.47
2023-01-29T13:42:03.435Z,98408.25
2023-01-29T13:44:34.910Z,98472.66
2023-01-29T13:47:05.258Z,98409.91
2023-01-29T13:49:42.570Z,98488.91
2023-01-29T13:52:39.878Z,98461.47
2023-01-29T13:55:08.256Z,98492.16
2023-01-29T13:57:44.027Z,98475.34
2023-01-29T14:00:22.718Z,98470.47
2023-01-29T14:02:58.280Z,98451.91
2023-01-29T14:05:30.924Z,98459.00
2023-01-29T14:08:38.892Z,98452.63
2023-01-29T14:11:33.653Z,98439.75
2023-01-29T14:14:00.584Z,98415.97
2023-01-29T14:16:35.691Z,98400.63
2023-01-29T14:19:05.783Z,98291.78
2023-01-29T14:21:34.233Z,98347.16
2023-01-29T14:24:10.048Z,98352.69
2023-01-29T14:26:43.710Z,98359.63
2023-01-29T14:29:18.807Z,98335.03
2023-01-29T14:31:59.144Z,98117.47
2023-01-29T14:34:32.864Z,98070.28
2023-01-29T14:37:19.045Z,98291.59
2023-01-29T14:39:52.196Z,98169.06
2023-01-29T14:42:24.700Z,98316.06
2023-01-29T14:44:54.080Z,98308.16
2023-01-29T14:47:43.119Z,98295.00
2023-01-29T14:50:18.715Z,98287.00
2023-01-29T14:52:49.184Z,98095.84
2023-01-29T14:55:27.466Z,98249.00
2023-01-29T14:58:00.050Z,97997.66
2023-01-29T15:00:30.257Z,98043.66
2023-01-29T15:03:02.074Z,98158.19
2023-01-29T15:05:37.659Z,98215.22
2023-01-29T15:08:18.218Z,98234.28
2023-01-29T15:11:16.488Z,98070.31
2023-01-29T15:13:53.749Z,98126.47
2023-01-29T15:16:25.878Z,98124.72
2023-01-29T15:18:56.652Z,97914.16
2023-01-29T15:21:23.417Z,98178.84
2023-01-29T15:24:05.448Z,98126.34
2023-01-29T15:26:33.245Z,97861.91
2023-01-29T15:29:04.550Z,98132.59
2023-01-29T15:31:32.382Z,97953.09
2023-01-29T15:34:04.958Z,98098.13
2023-01-29T15:36:32.423Z,98134.19
2023-01-29T15:39:24.667Z,98125.63
2023-01-29T15:42:10.562Z,97999.97
2023-01-29T15:44:44.937Z,98125.22
2023-01-29T15:47:12.582Z,98046.59
2023-01-29T15:49:41.223Z,98121.28
2023-01-29T15:52:20.775Z,98139.63
2023-01-29T15:54:47.957Z,98121.00
2023-01-29T15:57:28.200Z,98019.75
2023-01-29T15:59:57.751Z,98122.50
2023-01-29T16:02:41.684Z,98117.06
2023-01-29T16:05:18.413Z,97959.44
2023-01-29T16:07:45.788Z,98097.81
2023-01-29T16:10:19.908Z,97940.75
2023-01-29T16:12:51.421Z,97868.97
2023-01-29T16:15:24.158Z,98017.41
2023-01-29T16:17:51.967Z,97988.00
2023-01-29T16:20:31.706Z,98043.78
2023-01-29T16:22:59.219Z,97887.13
2023-01-29T16:25:26.460Z,97900.78
2023-01-29T16:27:53.293Z,98031.19
2023-01-29T16:30:20.022Z,98015.16
2023-01-29T16:32:46.722Z,97867.56
2023-01-29T16:35:17.511Z,97760.03
2023-01-29T16:37:48.964Z,98005.94
2023-01-29T16:40:34.713Z,97903.31
2023-01-29T16:43:19.876Z,98009.03
2023-01-29T16:46:34.913Z,97986.81
2023-01-29T16:49:02.165Z,97899.78
2023-01-29T16:51:31.399Z,97882.88
2023-01-29T16:54:10.848Z,97979.19
2023-01-29T16:56:39.448Z,97930.19
2023-01-29T16:59:06.911Z,97807.69
2023-01-29T17:01:35.669Z,97896.84
2023-01-29T17:04:10.275Z,97977.28
2023-01-29T17:06:38.029Z,97971.00
2023-01-29T17:09:05.939Z,97749.56
2023-01-29T17:11:37.519Z,97901.09
2023-01-29T17:14:07.579Z,97717.19
2023-01-29T17:16:50.456Z,97942.06
2023-01-29T17:19:20.783Z,97805.44
2023-01-29T17:21:48.030Z,97906.09
2023-01-29T17:24:14.757Z,97951.47
2023-01-29T17:26:41.803Z,97911.66
2023-01-29T17:29:26.394Z,97250.03
2023-01-29T17:31:53.271Z,97914.53
2023-01-29T17:34:19.958Z,97974.66
2023-01-29T17:36:46.531Z,97718.47
2023-01-29T17:39:21.604Z,97807.22
2023-01-29T17:41:54.727Z,97815.03
2023-01-29T17:44:22.152Z,97816.28
2023-01-29T17:46:49.443Z,97761.44
2023-01-29T17:49:29.448Z,97834.91
2023-01-29T17:51:57.046Z,97721.41
2023-01-29T17:54:25.571Z,97802.06
2023-01-29T17:56:53.019Z,97809.59
2023-01-29T17:59:25.094Z,97799.41
2023-01-29T18:01:52.060Z,97796.06
2023-01-29T18:04:18.933Z,97674.97
2023-01-29T18:06:48.867Z,97722.41
2023-01-29T18:09:16.985Z,97745.94
2023-01-29T18:11:43.746Z,97790.41
2023-01-29T18:14:14.520Z,97686.38
2023-01-29T18:16:42.991Z,97657.69
2023-01-29T18:19:15.328Z,97476.06
2023-01-29T18:21:41.985Z,97674.78
2023-01-29T18:24:09.088Z,97712.69
2023-01-29T18:26:36.143Z,97678.75
2023-01-29T18:29:04.037Z,97711.06
2023-01-29T18:31:31.064Z,97706.19
2023-01-29T18:34:00.958Z,97671.53
2023-01-29T18:36:27.787Z,97586.78
2023-01-29T18:38:56.814Z,97577.47
2023-01-29T18:41:23.637Z,97493.53
2023-01-29T18:43:52.625Z,97659.47
2023-01-29T18:46:21.155Z,97182.13
2023-01-29T18:48:47.939Z,97636.38
2023-01-29T18:51:14.618Z,97526.63
2023-01-29T18:53:41.310Z,97627.50
2023-01-29T18:56:08.371Z,97536.66
2023-01-29T18:58:36.588Z,97537.31
2023-01-29T19:01:10.147Z,97593.47
2023-01-29T19:03:38.641Z,97571.47
2023-01-29T19:06:07.775Z,97453.84
2023-01-29T19:08:34.771Z,97601.16
2023-01-29T19:11:08.001Z,97603.56
2023-01-29T19:13:36.431Z,97578.88
2023-01-29T19:16:09.384Z,97499.72
2023-01-29T19:18:38.761Z,97224.88
2023-01-29T19:21:13.137Z,96740.31
2023-01-29T19:23:41.324Z,97380.69
2023-01-29T19:26:10.044Z,97553.56
2023-01-29T19:28:36.813Z,97360.75
2023-01-29T19:31:03.666Z,97565.63
2023-01-29T19:33:30.402Z,97549.34
2023-01-29T19:36:00.403Z,97381.41
2023-01-29T19:38:27.574Z,97339.50
2023-01-29T19:40:55.447Z,97362.28
2023-01-29T19:43:23.094Z,96877.44
2023-01-29T19:45:51.088Z,97307.59
2023-01-29T19:48:21.812Z,97386.22
2023-01-29T19:51:09.721Z,97523.28
2023-01-29T19:53:38.169Z,97451.16
2023-01-29T19:56:07.568Z,97453.19
2023-01-29T19:58:35.040Z,97495.38
2023-01-29T20:01:04.811Z,97393.19
2023-01-29T20:03:31.680Z,97533.78
2023-01-29T20:06:03.752Z,97329.50
2023-01-29T20:08:31.571Z,97433.19
2023-01-29T20:10:58.205Z,97466.00
2023-01-29T20:13:24.900Z,97243.63
2023-01-29T20:15:52.163Z,97414.84
2023-01-29T20:18:19.567Z,97340.03
2023-01-29T20:20:49.153Z,96909.94
2023-01-29T20:23:25.061Z,97446.66
2023-01-29T20:26:02.740Z,97400.44
2023-01-29T20:28:29.549Z,97037.63
2023-01-29T20:30:58.060Z,97375.59
2023-01-29T20:33:26.089Z,97394.69
2023-01-29T20:36:00.674Z,97301.19
2023-01-29T20:38:30.512Z,97263.63
2023-01-29T20:41:12.607Z,97426.81
2023-01-29T20:43:39.462Z,97412.44
2023-01-29T20:46:06.758Z,97318.59
2023-01-29T20:48:33.601Z,97348.78
2023-01-29T20:51:24.668Z,97196.75
2023-01-29T20:53:51.334Z,97232.31
2023-01-29T20:56:18.584Z,97326.31
2023-01-29T20:58:51.224Z,97394.16
2023-01-29T21:01:20.393Z,97421.88
2023-01-29T21:03:47.553Z,97233.94
2023-01-29T21:06:14.438Z,97361.09
2023-01-29T21:08:41.210Z,97401.66
2023-01-29T21:11:09.436Z,97255.88
2023-01-29T21:13:36.463Z,97297.97
2023-01-29T21:16:03.628Z,97390.94
2023-01-29T21:18:30.476Z,97156.38
2023-01-29T21:20:57.074Z,97295.50
2023-01-29T21:23:24.187Z,97327.38
2023-01-29T21:25:50.796Z,97357.19
2023-01-29T21:28:17.595Z,97255.94
2023-01-29T21:30:44.540Z,97278.38
2023-01-29T21:33:11.229Z,97336.28
2023-01-29T21:35:38.435Z,97220.59
2023-01-29T21:38:05.146Z,97358.13
2023-01-29T21:40:31.761Z,97389.84
2023-01-29T21:43:14.132Z,97396.47
2023-01-29T21:45:41.539Z,97310.34
2023-01-29T21:48:09.943Z,97289.22
2023-01-29T21:50:36.651Z,97373.69
2023-01-29T21:53:03.307Z,97317.44
2023-01-29T21:55:30.375Z,97298.72
2023-01-29T21:57:57.015Z,97385.03
2023-01-29T22:00:23.685Z,97131.19
2023-01-29T22:02:55.494Z,97185.28
2023-01-29T22:05:22.403Z,97267.28
2023-01-29T22:07:49.398Z,97375.03
2023-01-29T22:10:19.769Z,97391.19
2023-01-29T22:12:47.522Z,97323.91
2023-01-29T22:15:15.463Z,97382.16
2023-01-29T22:17:42.745Z,97317.63
2023-01-29T22:20:11.806Z,97187.13
2023-01-29T22:22:38.483Z,97010.59
2023-01-29T22:25:05.737Z,97338.91
2023-01-29T22:27:33.474Z,97142.47
2023-01-29T22:30:00.316Z,97257.44
2023-01-29T22:32:27.312Z,97334.88
2023-01-29T22:34:54.040Z,97359.22
2023-01-29T22:37:20.680Z,97186.34
2023-01-29T22:39:47.320Z,97339.38
2023-01-29T22:42:14.036Z,97247.56
2023-01-29T22:44:43.742Z,97335.38
2023-01-29T22:47:10.407Z,97290.81
2023-01-29T22:49:36.968Z,97362.81
2023-01-29T22:52:12.638Z,97209.97
2023-01-29T22:54:41.488Z,96853.88
2023-01-29T22:57:13.111Z,97007.59
2023-01-29T22:59:40.254Z,97196.78
2023-01-29T23:02:07.773Z,97080.47
2023-01-29T23:04:34.728Z,97233.25
2023-01-29T23:07:01.394Z,97333.56
2023-01-29T23:09:28.076Z,97313.38
2023-01-29T23:11:54.647Z,97199.00
2023-01-29T23:14:21.514Z,97316.44
2023-01-29T23:16:48.114Z,97317.28
2023-01-29T23:19:14.697Z,97219.31
2023-01-29T23:21:41.265Z,97295.81
2023-01-29T23:24:08.551Z,97150.81
2023-01-29T23:26:56.840Z,97231.41
2023-01-29T23:29:23.544Z,97268.72
2023-01-29T23:31:50.230Z,97256.97
2023-01-29T23:34:17.086Z,97099.16
2023-01-29T23:36:43.825Z,97196.63
2023-01-29T23:39:10.803Z,97246.16
2023-01-29T23:41:37.465Z,97239.41
2023-01-29T23:44:04.404Z,97261.19
2023-01-29T23:46:31.449Z,97276.97
2023-01-29T23:48:58.223Z,97248.91
2023-01-29T23:51:24.855Z,97249.56
2023-01-29T23:53:51.668Z,97167.81
2023-01-29T23:56:18.571Z,97257.97
2023-01-29T23:58:45.980Z,96993.72
